Time;durP1;ratioP1;P1;durP2;ratioP2;P2;SDS_P1;SDS_P2;PMS_P1;PMS_P2;Temp;Humidity;BMP_temperature;BMP_pressure;BME280_temperature;BME280_humidity;BME280_pressure;Samples;Min_cycle;Max_cycle;Signal;HPM_P1;HPM_P2
2022/12/05 00:01:12;;;;;;;42.40;24.35;;;4.70;93.30;;;;;;5029729;28;20025;-70
2022/12/05 00:03:38;;;;;;;37.93;22.53;;;4.80;93.30;;;;;;5030118;28;20048;-73
2022/12/05 00:06:04;;;;;;;42.90;24.97;;;4.70;93.10;;;;;;5029582;28;20477;-73
2022/12/05 00:08:29;;;;;;;52.30;25.60;;;4.60;93.60;;;;;;5029129;28;20028;-73
2022/12/05 00:10:55;;;;;;;51.57;26.17;;;4.50;93.70;;;;;;5028468;28;20059;-73
2022/12/05 00:13:20;;;;;;;58.60;27.93;;;4.50;93.70;;;;;;5029508;28;20260;-74
2022/12/05 00:15:46;;;;;;;51.87;26.37;;;4.50;93.80;;;;;;5029660;28;20422;-72
2022/12/05 00:18:12;;;;;;;55.10;28.00;;;4.50;93.80;;;;;;5029023;28;20034;-72
2022/12/05 00:20:47;;;;;;;54.37;28.20;;;4.40;93.70;;;;;;5031542;28;20461;-72
2022/12/05 00:23:13;;;;;;;63.35;31.60;;;4.30;94.10;;;;;;5030558;28;20694;-70
2022/12/05 00:25:39;;;;;;;58.45;28.70;;;4.20;93.90;;;;;;5031133;28;20032;-73
2022/12/05 00:28:05;;;;;;;54.83;28.00;;;4.30;94.00;;;;;;5030144;28;20037;-73
2022/12/05 00:30:30;;;;;;;52.00;27.73;;;4.20;93.90;;;;;;5030510;28;20033;-73
2022/12/05 00:32:56;;;;;;;53.83;26.50;;;4.20;94.00;;;;;;5030882;28;20036;-73
2022/12/05 00:35:22;;;;;;;58.25;28.60;;;4.10;93.90;;;;;;5030385;28;20026;-74
2022/12/05 00:37:47;;;;;;;52.70;27.77;;;4.10;93.90;;;;;;5030728;28;20520;-74
2022/12/05 00:40:13;;;;;;;59.53;26.57;;;4.10;93.90;;;;;;5029107;28;20068;-73
2022/12/05 00:42:39;;;;;;;40.93;21.67;;;4.10;93.90;;;;;;5029197;28;20275;-73
2022/12/05 00:45:05;;;;;;;52.80;25.70;;;3.90;93.90;;;;;;5030640;28;20083;-70
2022/12/05 00:47:34;;;;;;;50.60;26.67;;;3.90;94.30;;;;;;5029719;28;20044;-70
2022/12/05 00:50:00;;;;;;;51.90;26.60;;;3.90;94.00;;;;;;5030498;28;20045;-72
2022/12/05 00:52:26;;;;;;;55.37;27.23;;;3.80;94.00;;;;;;5028566;28;20385;-70
2022/12/05 00:54:51;;;;;;;57.60;27.50;;;3.90;94.20;;;;;;5030665;28;20275;-69
2022/12/05 00:57:17;;;;;;;55.23;26.80;;;3.90;94.10;;;;;;5029887;28;20092;-70
2022/12/05 00:59:43;;;;;;;55.20;25.90;;;3.80;94.10;;;;;;5030382;28;20029;-69
2022/12/05 01:02:08;;;;;;;56.60;27.80;;;3.80;94.10;;;;;;5030033;28;20091;-72
2022/12/05 01:04:34;;;;;;;49.17;26.53;;;3.70;94.10;;;;;;5030651;28;20032;-73
2022/12/05 01:06:59;;;;;;;53.80;25.47;;;3.70;94.10;;;;;;5030280;28;20311;-72
2022/12/05 01:09:26;;;;;;;52.10;26.40;;;3.60;94.10;;;;;;5030220;28;20037;-73
2022/12/05 01:11:51;;;;;;;54.67;24.77;;;3.60;94.00;;;;;;5031358;28;20053;-73
2022/12/05 01:14:20;;;;;;;50.45;23.92;;;3.50;94.00;;;;;;5028762;28;20064;-72
2022/12/05 01:16:47;;;;;;;55.10;25.38;;;3.50;94.30;;;;;;5030495;28;20021;-71
2022/12/05 01:19:22;;;;;;;53.67;27.05;;;3.50;94.40;;;;;;5029996;28;20083;-72
2022/12/05 01:21:49;;;;;;;52.15;26.92;;;3.50;94.60;;;;;;5029883;28;20017;-73
2022/12/05 01:24:15;;;;;;;55.47;27.27;;;3.50;94.40;;;;;;5028396;28;20690;-74
2022/12/05 01:26:43;;;;;;;55.13;28.80;;;3.50;94.50;;;;;;5028367;28;20029;-73
2022/12/05 01:29:10;;;;;;;56.88;27.25;;;3.50;94.40;;;;;;5029782;28;20034;-73
2022/12/05 01:31:36;;;;;;;57.45;28.90;;;3.50;94.30;;;;;;5028774;28;20062;-73
2022/12/05 01:34:05;;;;;;;59.67;27.05;;;3.50;94.30;;;;;;5029007;28;20025;-74
2022/12/05 01:36:31;;;;;;;56.92;26.58;;;3.30;94.20;;;;;;5028786;28;20037;-74
2022/12/05 01:38:57;;;;;;;75.95;29.80;;;3.30;94.20;;;;;;5028737;28;20033;-73
2022/12/05 01:41:27;;;;;;;;;;;3.30;94.20;;;;;;5030293;28;20064;-74
2022/12/05 01:43:57;;;;;;;64.07;28.27;;;3.30;94.30;;;;;;5029821;28;20853;-73
2022/12/05 01:46:23;;;;;;;78.13;30.00;;;3.30;93.90;;;;;;5029565;28;20094;-73
2022/12/05 01:48:50;;;;;;;58.80;29.45;;;3.20;94.10;;;;;;5029622;28;20040;-72
2022/12/05 01:51:17;;;;;;;55.70;27.52;;;3.10;93.90;;;;;;5029109;28;20037;-72
2022/12/05 01:53:42;;;;;;;59.35;29.83;;;3.20;93.90;;;;;;5029630;28;20026;-73
2022/12/05 01:56:08;;;;;;;51.70;26.07;;;3.10;93.80;;;;;;5029257;28;20030;-74
2022/12/05 01:58:37;;;;;;;53.88;26.75;;;3.10;93.70;;;;;;5029303;28;20788;-73
2022/12/05 02:01:03;;;;;;;53.30;26.50;;;3.00;93.60;;;;;;5024414;28;20033;-73
2022/12/05 02:03:30;;;;;;;92.72;25.88;;;3.10;93.40;;;;;;5029001;28;20528;-72
2022/12/05 02:05:57;;;;;;;144.85;25.48;;;3.10;92.90;;;;;;5028918;28;20118;-73
2022/12/05 02:08:26;;;;;;;191.57;25.42;;;3.10;92.90;;;;;;5029020;28;20493;-70
2022/12/05 02:10:55;;;;;;;192.10;23.15;;;3.10;92.80;;;;;;5029431;28;20428;-72
2022/12/05 02:13:29;;;;;;;187.50;24.13;;;3.00;93.10;;;;;;5028569;28;20020;-73
2022/12/05 02:16:00;;;;;;;186.15;22.67;;;3.00;93.60;;;;;;5029986;28;20032;-72
2022/12/05 02:19:01;;;;;;;119.70;22.08;;;3.00;93.80;;;;;;5029174;28;20029;-74
2022/12/05 02:21:51;;;;;;;222.93;21.73;;;3.00;94.10;;;;;;5028265;28;20033;-72
2022/12/05 02:24:44;;;;;;;170.85;20.60;;;2.90;94.20;;;;;;5027297;28;20033;-71
2022/12/05 02:27:33;;;;;;;294.20;24.88;;;3.00;94.50;;;;;;5028749;28;20390;-74
2022/12/05 02:30:13;;;;;;;248.27;26.08;;;3.00;95.20;;;;;;5028394;28;20038;-73
2022/12/05 02:32:59;;;;;;;138.98;18.27;;;3.10;95.60;;;;;;5029126;28;20021;-73
2022/12/05 02:35:41;;;;;;;79.15;17.20;;;3.00;95.00;;;;;;5029146;28;20030;-74
2022/12/05 02:38:48;;;;;;;53.22;17.50;;;3.00;94.00;;;;;;5022034;28;20029;-73
2022/12/05 02:41:27;;;;;;;430.08;35.97;;;3.00;93.70;;;;;;5025496;28;20045;-74
2022/12/05 02:44:03;;;;;;;233.63;29.23;;;3.00;94.00;;;;;;5027839;28;20068;-74
2022/12/05 02:46:32;;;;;;;252.23;31.88;;;3.00;94.60;;;;;;5026060;28;20056;-74
2022/12/05 02:49:02;;;;;;;140.02;26.70;;;3.10;94.50;;;;;;5027899;28;20070;-72
2022/12/05 02:51:32;;;;;;;122.80;25.13;;;3.20;94.80;;;;;;5029283;28;20026;-74
2022/12/05 02:54:02;;;;;;;257.98;37.72;;;3.30;94.40;;;;;;5029292;28;20034;-73
2022/12/05 02:56:31;;;;;;;362.98;36.30;;;3.40;94.60;;;;;;5028678;28;20370;-71
2022/12/05 02:58:56;;;;;;;245.00;30.67;;;3.40;94.70;;;;;;5028752;28;20026;-73
2022/12/05 03:01:26;;;;;;;236.77;31.80;;;3.40;94.80;;;;;;5027489;28;20040;-73
2022/12/05 03:03:53;;;;;;;377.58;33.45;;;3.40;95.00;;;;;;5028640;28;20167;-70
2022/12/05 03:06:26;;;;;;;286.45;29.48;;;3.50;95.20;;;;;;5028323;28;20104;-69
2022/12/05 03:08:59;;;;;;;180.40;28.60;;;3.40;95.40;;;;;;5028016;28;20033;-69
2022/12/05 03:11:30;;;;;;;281.60;27.92;;;3.50;95.30;;;;;;5027570;28;20028;-70
2022/12/05 03:13:59;;;;;;;281.15;30.27;;;3.50;95.10;;;;;;5029097;28;20480;-69
2022/12/05 03:16:42;;;;;;;181.00;23.65;;;3.50;95.00;;;;;;5028480;28;20443;-73
2022/12/05 03:19:27;;;;;;;287.00;24.42;;;3.50;95.00;;;;;;5027931;28;20033;-73
2022/12/05 03:22:05;;;;;;;304.08;27.63;;;3.50;95.10;;;;;;5028153;28;20108;-74
2022/12/05 03:24:35;;;;;;;217.55;24.95;;;3.50;95.80;;;;;;5030567;28;20029;-74
2022/12/05 03:27:39;;;;;;;241.57;23.35;;;3.40;95.80;;;;;;5032216;28;20036;-71
2022/12/05 03:30:08;;;;;;;218.88;26.50;;;3.50;96.40;;;;;;5030767;28;20838;-73
2022/12/05 03:32:37;;;;;;;171.70;28.10;;;3.30;96.50;;;;;;5031190;28;20056;-73
2022/12/05 03:35:05;;;;;;;123.60;24.00;;;3.30;95.70;;;;;;5025858;28;20017;-73
2022/12/05 03:37:41;;;;;;;189.05;31.35;;;3.00;95.70;;;;;;5031543;28;20018;-74
2022/12/05 03:40:09;;;;;;;139.38;27.98;;;2.90;96.40;;;;;;5031819;28;20505;-73
2022/12/05 03:42:39;;;;;;;109.75;24.92;;;3.10;96.40;;;;;;5029715;28;20446;-73
2022/12/05 03:45:11;;;;;;;78.57;22.90;;;3.20;96.30;;;;;;5027895;28;20053;-73
2022/12/05 03:47:58;;;;;;;84.68;23.83;;;3.20;95.20;;;;;;5031624;28;20640;-73
2022/12/05 03:50:27;;;;;;;44.50;23.45;;;3.30;94.50;;;;;;5025870;28;20040;-73
2022/12/05 03:53:03;;;;;;;39.05;20.45;;;3.40;94.20;;;;;;5031690;28;20026;-73
2022/12/05 03:55:33;;;;;;;35.58;18.92;;;3.40;93.80;;;;;;5032002;28;20164;-72
2022/12/05 03:58:06;;;;;;;44.28;21.65;;;3.40;94.00;;;;;;5031765;28;20037;-72
2022/12/05 04:00:36;;;;;;;42.00;19.83;;;3.50;93.60;;;;;;5031644;28;20029;-73
2022/12/05 04:03:02;;;;;;;42.45;19.95;;;3.60;93.40;;;;;;5028746;28;20111;-71
2022/12/05 04:05:41;;;;;;;74.07;22.33;;;3.70;93.40;;;;;;5031617;28;20091;-72
2022/12/05 04:08:13;;;;;;;163.55;30.42;;;3.70;93.60;;;;;;5031204;28;20044;-73
2022/12/05 04:10:48;;;;;;;112.85;27.50;;;3.70;94.20;;;;;;5031474;28;20449;-72
2022/12/05 04:13:20;;;;;;;101.28;26.58;;;3.70;94.00;;;;;;5028458;28;20119;-71
2022/12/05 04:18:43;;;;;;;127.53;28.80;;;3.80;94.10;;;;;;5030717;28;20036;-71
2022/12/05 04:27:24;;;;;;;62.53;23.77;;;3.70;93.60;;;;;;5007849;28;20045;-73
2022/12/05 04:29:56;;;;;;;65.00;23.90;;;3.50;93.80;;;;;;5025384;28;20053;-72
2022/12/05 04:32:27;;;;;;;57.47;22.33;;;3.50;94.10;;;;;;5030850;28;20501;-71
2022/12/05 04:34:57;;;;;;;47.75;21.55;;;3.60;93.90;;;;;;5028694;28;20127;-72
2022/12/05 04:37:25;;;;;;;59.45;22.70;;;3.50;94.10;;;;;;5026338;28;20029;-73
2022/12/05 04:40:00;;;;;;;48.75;21.90;;;3.60;94.00;;;;;;5029612;28;20036;-72
2022/12/05 04:42:27;;;;;;;48.25;22.30;;;3.60;93.90;;;;;;5030926;28;20056;-73
2022/12/05 04:44:56;;;;;;;37.22;20.85;;;3.60;93.70;;;;;;5029571;28;20029;-73
2022/12/05 04:47:25;;;;;;;45.03;22.13;;;3.70;93.60;;;;;;5030354;28;20068;-72
2022/12/05 04:49:54;;;;;;;47.13;22.23;;;3.80;93.50;;;;;;5029542;28;20034;-73
2022/12/05 04:52:21;;;;;;;39.72;20.83;;;3.80;93.50;;;;;;5030147;28;20104;-73
2022/12/05 04:55:10;;;;;;;44.22;21.58;;;3.80;93.00;;;;;;5029218;28;20437;-72
2022/12/05 04:57:58;;;;;;;41.67;19.95;;;3.80;93.20;;;;;;5030931;28;20028;-74
2022/12/05 05:00:24;;;;;;;39.75;22.17;;;3.70;93.10;;;;;;5028922;28;20033;-72
2022/12/05 05:03:04;;;;;;;42.22;20.17;;;3.80;93.30;;;;;;5030289;28;20500;-70
2022/12/05 05:05:31;;;;;;;38.78;19.73;;;3.80;93.10;;;;;;5029066;28;20041;-72
2022/12/05 05:07:57;;;;;;;52.72;23.38;;;3.70;93.50;;;;;;5029398;28;20018;-72
2022/12/05 05:10:42;;;;;;;46.40;22.13;;;3.70;93.50;;;;;;5030300;28;20045;-71
2022/12/05 05:13:07;;;;;;;38.78;20.10;;;3.60;93.50;;;;;;5026440;28;20021;-72
2022/12/05 05:15:33;;;;;;;35.73;20.70;;;3.60;93.70;;;;;;5030672;28;20405;-71
2022/12/05 05:17:58;;;;;;;41.37;19.63;;;3.50;93.60;;;;;;5030215;28;20022;-72
2022/12/05 05:20:25;;;;;;;42.37;22.03;;;3.50;93.80;;;;;;5025881;28;20478;-69
2022/12/05 05:22:53;;;;;;;45.13;21.30;;;3.50;93.80;;;;;;5029640;28;20356;-70
2022/12/05 05:25:20;;;;;;;39.80;20.25;;;3.60;93.80;;;;;;5028682;28;20025;-69
2022/12/05 05:27:53;;;;;;;42.65;20.23;;;3.50;93.60;;;;;;5024301;28;20025;-72
2022/12/05 05:30:21;;;;;;;38.78;20.60;;;3.60;93.60;;;;;;5029402;28;20091;-75
2022/12/05 05:32:47;;;;;;;41.80;20.52;;;3.60;93.50;;;;;;5029668;28;20018;-75
2022/12/05 05:35:13;;;;;;;52.42;24.98;;;3.40;93.70;;;;;;5029232;28;20029;-73
2022/12/05 05:37:39;;;;;;;46.30;23.10;;;3.50;93.90;;;;;;5029917;28;20038;-70
2022/12/05 05:40:06;;;;;;;60.80;26.27;;;3.50;93.70;;;;;;5029935;28;20033;-73
2022/12/05 05:42:32;;;;;;;62.65;27.73;;;3.50;93.70;;;;;;5029673;28;20021;-73
2022/12/05 05:44:57;;;;;;;68.87;27.87;;;3.60;93.60;;;;;;5029098;28;20025;-72
2022/12/05 05:47:23;;;;;;;56.73;26.23;;;3.60;93.60;;;;;;5028181;28;20033;-73
2022/12/05 05:49:49;;;;;;;76.20;28.43;;;3.60;93.60;;;;;;5029310;28;20041;-73
2022/12/05 05:52:14;;;;;;;83.77;32.57;;;3.60;93.70;;;;;;5028124;28;20087;-72
2022/12/05 05:54:40;;;;;;;63.85;27.25;;;3.70;93.60;;;;;;5029535;28;20025;-73
2022/12/05 05:57:06;;;;;;;68.77;26.93;;;3.70;93.50;;;;;;5029523;28;20037;-74
2022/12/05 05:59:31;;;;;;;81.70;30.60;;;3.70;93.80;;;;;;5027495;28;20108;-73
2022/12/05 06:01:57;;;;;;;55.50;25.02;;;3.70;93.50;;;;;;5029572;28;20120;-73
2022/12/05 06:04:23;;;;;;;55.50;24.90;;;3.80;93.50;;;;;;5029131;28;20030;-73
2022/12/05 06:06:48;;;;;;;57.80;26.40;;;3.70;93.60;;;;;;5029133;28;20400;-72
2022/12/05 06:09:14;;;;;;;59.97;26.93;;;3.80;93.50;;;;;;5027742;28;20116;-72
2022/12/05 06:11:39;;;;;;;59.13;26.00;;;3.80;93.60;;;;;;5029397;28;20163;-71
2022/12/05 06:14:05;;;;;;;46.60;23.73;;;3.90;93.30;;;;;;5029750;28;20025;-73
2022/12/05 06:16:31;;;;;;;57.10;26.77;;;3.80;93.30;;;;;;5028847;28;20560;-71
2022/12/05 06:18:57;;;;;;;56.65;25.83;;;3.80;93.70;;;;;;5029380;28;20025;-71
2022/12/05 06:21:23;;;;;;;57.03;27.17;;;3.90;93.40;;;;;;5029529;28;20156;-73
2022/12/05 06:23:50;;;;;;;67.53;27.42;;;3.90;93.30;;;;;;5029237;28;20123;-72
2022/12/05 06:26:17;;;;;;;60.03;26.70;;;3.90;93.20;;;;;;5028860;28;20025;-73
2022/12/05 06:28:43;;;;;;;57.00;26.20;;;3.80;93.20;;;;;;5028825;28;20067;-72
2022/12/05 06:31:12;;;;;;;58.75;26.15;;;3.80;93.40;;;;;;5029587;28;20033;-73
2022/12/05 06:33:38;;;;;;;44.72;24.13;;;3.90;93.50;;;;;;5029140;28;20036;-70
2022/12/05 06:36:09;;;;;;;53.50;25.55;;;4.00;93.20;;;;;;5028534;28;20030;-74
2022/12/05 06:38:35;;;;;;;57.63;27.63;;;4.00;93.20;;;;;;5025471;28;20154;-72
2022/12/05 06:41:04;;;;;;;49.13;25.17;;;4.00;93.40;;;;;;5027081;28;20076;-69
2022/12/05 06:43:30;;;;;;;47.90;24.60;;;4.00;93.40;;;;;;5027217;28;20075;-74
2022/12/05 06:45:56;;;;;;;50.70;24.37;;;4.10;93.40;;;;;;5027832;28;20124;-73
2022/12/05 06:48:22;;;;;;;49.45;23.83;;;4.10;93.30;;;;;;5027324;28;20516;-73
2022/12/05 06:50:52;;;;;;;45.97;25.27;;;4.10;93.10;;;;;;5028501;28;20041;-72
2022/12/05 06:53:19;;;;;;;41.50;22.38;;;4.00;93.20;;;;;;5027112;28;20280;-73
2022/12/05 06:55:53;;;;;;;44.95;23.40;;;4.00;93.30;;;;;;5027816;28;20029;-73
2022/12/05 06:58:19;;;;;;;41.83;22.40;;;3.90;93.40;;;;;;5028606;28;20026;-70
2022/12/05 07:03:28;;;;;;;51.00;25.73;;;3.90;93.80;;;;;;5030893;28;20560;-69
2022/12/05 07:05:54;;;;;;;48.77;25.93;;;3.90;93.40;;;;;;5031286;28;20068;-68
2022/12/05 07:08:19;;;;;;;53.20;27.27;;;3.90;93.50;;;;;;5030317;28;20033;-74
2022/12/05 07:10:51;;;;;;;47.23;25.23;;;3.80;93.90;;;;;;5032094;28;20037;-69
2022/12/05 07:13:16;;;;;;;46.05;24.17;;;3.80;93.70;;;;;;5030222;28;20451;-70
2022/12/05 07:15:42;;;;;;;55.03;25.07;;;3.70;93.90;;;;;;5028861;28;20053;-69
2022/12/05 07:18:07;;;;;;;51.13;26.50;;;3.80;93.70;;;;;;5029260;28;20508;-72
2022/12/05 07:20:33;;;;;;;51.20;25.97;;;3.80;93.70;;;;;;5030193;28;20023;-68
2022/12/05 07:22:59;;;;;;;55.00;26.07;;;3.80;93.70;;;;;;5030741;28;20026;-70
2022/12/05 07:25:25;;;;;;;58.23;25.63;;;3.80;93.80;;;;;;5031094;28;20057;-68
2022/12/05 07:27:50;;;;;;;54.75;25.85;;;3.80;93.60;;;;;;5030294;28;20029;-69
2022/12/05 07:30:16;;;;;;;47.77;24.10;;;3.80;93.50;;;;;;5031175;28;20044;-68
2022/12/05 07:32:41;;;;;;;66.50;26.83;;;3.90;93.50;;;;;;5030985;28;20018;-70
2022/12/05 07:35:07;;;;;;;61.53;27.77;;;3.80;93.50;;;;;;5031396;28;20516;-68
2022/12/05 07:37:33;;;;;;;69.88;29.45;;;3.90;93.90;;;;;;5029936;28;20029;-67
2022/12/05 07:39:58;;;;;;;67.13;30.30;;;4.10;93.70;;;;;;5030292;28;20049;-68
2022/12/05 07:42:24;;;;;;;63.30;27.77;;;4.20;93.50;;;;;;5029505;28;20029;-68
2022/12/05 07:44:50;;;;;;;63.47;27.80;;;4.20;93.30;;;;;;5030992;28;20111;-68
2022/12/05 07:47:16;;;;;;;73.47;31.80;;;4.20;93.20;;;;;;5030457;28;20031;-71
2022/12/05 07:49:41;;;;;;;67.00;29.07;;;4.20;93.10;;;;;;5029197;28;20128;-70
2022/12/05 07:52:08;;;;;;;74.20;29.63;;;4.30;93.10;;;;;;5029375;28;20026;-68
2022/12/05 07:54:33;;;;;;;76.38;30.38;;;4.20;93.10;;;;;;5028520;28;20029;-68
2022/12/05 07:56:59;;;;;;;76.97;30.60;;;4.20;93.30;;;;;;5028096;28;20022;-72
2022/12/05 07:59:25;;;;;;;73.30;31.10;;;4.20;93.20;;;;;;5029737;28;20444;-70
2022/12/05 08:01:50;;;;;;;72.32;29.63;;;4.10;93.00;;;;;;5028432;28;20036;-73
2022/12/05 08:04:16;;;;;;;76.60;31.30;;;4.00;93.60;;;;;;5030397;28;20045;-68
2022/12/05 08:06:42;;;;;;;78.45;30.83;;;4.10;93.40;;;;;;5030404;28;20723;-71
2022/12/05 08:09:08;;;;;;;68.68;31.13;;;4.10;93.30;;;;;;5030448;28;20048;-72
2022/12/05 08:11:36;;;;;;;83.33;33.87;;;4.10;93.30;;;;;;5029248;28;20033;-71
2022/12/05 08:14:04;;;;;;;85.10;33.47;;;4.20;93.60;;;;;;5027809;28;20025;-70
2022/12/05 08:16:31;;;;;;;73.10;30.92;;;4.20;93.20;;;;;;5030396;28;20032;-70
2022/12/05 08:18:59;;;;;;;63.85;29.02;;;4.20;93.00;;;;;;5030579;28;20030;-67
2022/12/05 08:21:25;;;;;;;65.95;28.08;;;4.20;92.90;;;;;;5025811;28;20038;-69
2022/12/05 08:23:51;;;;;;;62.10;29.33;;;4.20;92.90;;;;;;5030481;28;20083;-70
2022/12/05 08:26:23;;;;;;;65.18;28.30;;;4.30;92.90;;;;;;5029451;28;20038;-70
2022/12/05 08:28:53;;;;;;;74.05;30.52;;;4.30;93.00;;;;;;5028974;28;20094;-71
2022/12/05 08:31:22;;;;;;;59.55;27.05;;;4.30;92.90;;;;;;5024769;28;20095;-69
2022/12/05 08:33:48;;;;;;;69.63;28.75;;;4.50;92.70;;;;;;5029908;28;20076;-68
2022/12/05 08:36:14;;;;;;;;;;;4.40;92.80;;;;;;5028866;28;20086;-68
2022/12/05 08:38:41;;;;;;;61.60;26.95;;;4.40;92.80;;;;;;5030344;28;19940;-71
2022/12/05 08:41:08;;;;;;;;;;;4.60;92.80;;;;;;5030791;28;20044;-71
2022/12/05 08:43:34;;;;;;;81.68;34.80;;;5.00;92.70;;;;;;5029907;28;19956;-70
2022/12/05 08:46:00;;;;;;;74.87;33.93;;;5.20;92.40;;;;;;5029454;28;20141;-71
2022/12/05 08:48:27;;;;;;;74.45;34.42;;;5.30;92.20;;;;;;5029432;28;20037;-71
2022/12/05 08:50:53;;;;;;;77.63;33.78;;;5.20;91.80;;;;;;5030424;28;20168;-71
2022/12/05 08:53:20;;;;;;;96.82;33.35;;;5.30;91.90;;;;;;5029460;28;20171;-70
2022/12/05 08:55:46;;;;;;;;;;;5.40;91.80;;;;;;5030785;28;20034;-73
2022/12/05 08:58:12;;;;;;;85.65;30.65;;;5.40;91.80;;;;;;5029455;28;19909;-72
2022/12/05 09:00:39;;;;;;;71.75;28.25;;;5.40;91.70;;;;;;5028625;28;20033;-71
2022/12/05 09:03:05;;;;;;;65.45;29.75;;;5.30;91.60;;;;;;5029151;28;20028;-72
2022/12/05 09:05:30;;;;;;;72.40;27.43;;;5.30;91.60;;;;;;5029418;28;20364;-73
2022/12/05 09:07:58;;;;;;;86.07;29.67;;;5.20;91.40;;;;;;5030291;28;20278;-72
2022/12/05 09:10:24;;;;;;;89.97;29.52;;;5.20;92.00;;;;;;5029041;28;20477;-72
2022/12/05 09:12:50;;;;;;;87.13;28.10;;;5.30;92.00;;;;;;5028276;28;20036;-72
2022/12/05 09:15:16;;;;;;;105.43;27.75;;;5.30;91.80;;;;;;5027914;28;20105;-73
2022/12/05 09:17:43;;;;;;;88.57;26.95;;;5.30;91.90;;;;;;5028927;28;20191;-73
2022/12/05 09:20:11;;;;;;;81.50;27.17;;;5.30;91.70;;;;;;5028085;28;20033;-72
2022/12/05 09:22:37;;;;;;;53.92;24.63;;;5.30;91.90;;;;;;5025585;28;20041;-72
2022/12/05 09:25:03;;;;;;;48.90;25.10;;;5.40;91.90;;;;;;5028004;28;20405;-68
2022/12/05 09:27:29;;;;;;;52.13;23.58;;;5.50;91.60;;;;;;5028955;28;20029;-68
2022/12/05 09:29:54;;;;;;;45.90;23.30;;;5.50;91.40;;;;;;5028463;28;20036;-68
2022/12/05 09:32:20;;;;;;;54.90;22.77;;;5.60;91.10;;;;;;5028778;28;20050;-67
2022/12/05 09:34:45;;;;;;;76.80;25.00;;;5.50;91.40;;;;;;5029090;28;20025;-68
2022/12/05 09:37:11;;;;;;;84.27;26.00;;;5.60;91.80;;;;;;5027753;28;20084;-70
2022/12/05 09:39:37;;;;;;;43.10;20.65;;;5.70;91.50;;;;;;5027612;28;20033;-69
2022/12/05 09:42:19;;;;;;;43.87;21.83;;;5.80;91.10;;;;;;5028350;28;20030;-67
2022/12/05 09:45:03;;;;;;;45.67;23.35;;;5.80;91.20;;;;;;5028128;28;20021;-68
2022/12/05 09:47:38;;;;;;;45.15;23.67;;;5.90;91.00;;;;;;5025102;28;20065;-69
2022/12/05 09:50:25;;;;;;;49.25;21.92;;;6.00;90.50;;;;;;5025375;28;20044;-70
2022/12/05 09:53:00;;;;;;;44.77;21.17;;;5.90;91.00;;;;;;5027234;28;20018;-68
2022/12/05 09:55:52;;;;;;;48.33;20.42;;;5.80;91.10;;;;;;5027840;28;20045;-68
2022/12/05 09:58:32;;;;;;;42.80;21.80;;;5.60;90.90;;;;;;5024960;28;20108;-68
2022/12/05 10:01:30;;;;;;;43.33;20.73;;;5.60;90.90;;;;;;5028724;28;20049;-69
2022/12/05 10:04:17;;;;;;;37.65;20.88;;;5.60;91.10;;;;;;5028365;28;20037;-68
2022/12/05 10:07:06;;;;;;;42.17;21.33;;;5.90;90.90;;;;;;5027742;28;20029;-67
2022/12/05 10:09:53;;;;;;;47.42;22.33;;;5.80;90.80;;;;;;5025277;28;20091;-69
2022/12/05 10:12:41;;;;;;;41.50;20.50;;;5.90;91.10;;;;;;5027561;28;20091;-72
2022/12/05 10:15:25;;;;;;;40.78;21.55;;;5.90;90.00;;;;;;5026513;28;20029;-74
2022/12/05 10:18:25;;;;;;;39.80;21.08;;;5.90;91.00;;;;;;5026461;28;20025;-75
2022/12/05 10:20:56;;;;;;;38.42;21.55;;;6.10;90.40;;;;;;5027448;28;20084;-73
2022/12/05 10:23:43;;;;;;;34.55;19.88;;;6.30;90.60;;;;;;5026574;28;20683;-74
2022/12/05 10:26:11;;;;;;;35.70;20.30;;;6.30;90.00;;;;;;5027688;28;20035;-74
2022/12/05 10:28:51;;;;;;;37.42;22.00;;;6.30;90.10;;;;;;5028357;28;20025;-71
2022/12/05 10:31:21;;;;;;;47.50;22.20;;;6.50;90.20;;;;;;5024564;28;20036;-69
2022/12/05 10:33:54;;;;;;;42.13;22.88;;;6.60;89.30;;;;;;5029675;28;20095;-71
2022/12/05 10:36:23;;;;;;;52.28;22.92;;;6.60;90.00;;;;;;5030589;28;20029;-71
2022/12/05 10:38:49;;;;;;;41.80;22.40;;;6.60;90.30;;;;;;5031093;28;20025;-72
2022/12/05 10:41:15;;;;;;;;;;;6.80;90.40;;;;;;5032001;28;20083;-71
2022/12/05 10:43:43;;;;;;;32.60;18.45;;;6.90;90.10;;;;;;5030673;28;19919;-72
2022/12/05 10:46:10;;;;;;;30.60;17.80;;;6.90;89.30;;;;;;5031565;28;20029;-72
2022/12/05 10:48:39;;;;;;;33.25;17.92;;;6.80;88.80;;;;;;5031611;28;20025;-71
2022/12/05 10:51:10;;;;;;;40.58;19.15;;;6.80;88.80;;;;;;5029465;28;20029;-72
2022/12/05 10:53:40;;;;;;;31.80;16.95;;;6.70;88.90;;;;;;5028974;28;20436;-69
2022/12/05 10:56:38;;;;;;;28.25;15.40;;;6.50;89.20;;;;;;5030746;28;20041;-74
2022/12/05 10:59:04;;;;;;;30.67;15.88;;;6.30;89.00;;;;;;5029328;28;20116;-73
2022/12/05 11:01:30;;;;;;;;;;;6.20;90.00;;;;;;5030200;28;20497;-71
2022/12/05 11:03:58;;;;;;;33.78;18.20;;;6.20;90.20;;;;;;5031535;28;19916;-73
2022/12/05 11:06:29;;;;;;;31.70;17.52;;;6.10;90.20;;;;;;5030410;28;20022;-73
2022/12/05 11:09:26;;;;;;;35.55;19.60;;;6.10;90.10;;;;;;5030233;28;20030;-75
2022/12/05 11:11:57;;;;;;;36.90;18.85;;;6.10;90.40;;;;;;5030404;28;20041;-69
2022/12/05 11:14:25;;;;;;;33.28;19.40;;;6.10;90.30;;;;;;5031198;28;20017;-70
2022/12/05 11:16:57;;;;;;;34.45;19.40;;;6.20;90.50;;;;;;5031020;28;20036;-71
2022/12/05 11:19:32;;;;;;;27.05;15.82;;;6.50;90.30;;;;;;5030516;28;20029;-71
2022/12/05 11:21:58;;;;;;;27.65;15.27;;;6.40;89.80;;;;;;5028905;28;20037;-69
2022/12/05 11:24:35;;;;;;;27.92;17.27;;;6.50;90.40;;;;;;5029429;28;20026;-73
2022/12/05 11:27:16;;;;;;;;;;;6.50;89.90;;;;;;5027394;28;20509;-72
2022/12/05 11:29:44;;;;;;;31.02;16.45;;;6.50;89.50;;;;;;5031041;28;19967;-72
2022/12/05 11:32:20;;;;;;;29.90;18.13;;;6.30;90.50;;;;;;5030868;28;20025;-71
2022/12/05 11:34:52;;;;;;;30.90;16.48;;;6.50;90.40;;;;;;5029404;28;20032;-73
2022/12/05 11:37:54;;;;;;;30.75;19.17;;;6.40;90.10;;;;;;5030283;28;20045;-69
2022/12/05 11:40:38;;;;;;;35.53;20.00;;;6.30;90.40;;;;;;5028252;28;20028;-70
2022/12/05 11:43:15;;;;;;;33.85;18.10;;;6.30;90.90;;;;;;5028735;28;20052;-69
2022/12/05 11:45:59;;;;;;;35.05;20.85;;;6.30;90.60;;;;;;5028552;28;20035;-73
2022/12/05 11:49:01;;;;;;;35.50;19.73;;;6.30;90.60;;;;;;5029610;28;20099;-69
2022/12/05 11:51:37;;;;;;;36.60;20.77;;;6.40;90.70;;;;;;5031018;28;20140;-71
2022/12/05 11:54:08;;;;;;;33.65;19.63;;;6.40;90.70;;;;;;5026781;28;20026;-70
2022/12/05 11:56:35;;;;;;;35.08;19.33;;;6.50;90.20;;;;;;5032214;28;20060;-70
2022/12/05 11:59:16;;;;;;;34.38;19.90;;;6.50;90.50;;;;;;5032515;28;20092;-70
2022/12/05 12:01:48;;;;;;;31.95;20.25;;;6.60;90.50;;;;;;5031571;28;20032;-72
2022/12/05 12:04:22;;;;;;;30.85;18.88;;;6.70;90.50;;;;;;5031438;28;20096;-73
2022/12/05 12:07:17;;;;;;;28.13;17.85;;;6.90;89.70;;;;;;5044391;28;20485;-68
2022/12/05 12:10:22;;;;;;;31.42;17.60;;;6.90;89.30;;;;;;5027851;28;20163;-68
2022/12/05 12:12:57;;;;;;;26.42;14.93;;;7.00;87.80;;;;;;5027903;28;20046;-69
2022/12/05 12:16:09;;;;;;;29.30;15.48;;;7.10;88.60;;;;;;5030176;28;20044;-68
2022/12/05 12:18:45;;;;;;;26.52;15.57;;;7.20;88.60;;;;;;5032017;28;20041;-69
2022/12/05 12:21:33;;;;;;;25.13;14.63;;;7.30;87.20;;;;;;5032431;28;20059;-68
2022/12/05 12:24:02;;;;;;;27.90;16.13;;;7.30;84.90;;;;;;5023043;28;20073;-67
2022/12/05 12:26:34;;;;;;;29.50;17.65;;;7.40;87.50;;;;;;5030726;28;20432;-69
2022/12/05 12:29:22;;;;;;;30.40;17.00;;;7.50;87.50;;;;;;5030326;28;20028;-68
2022/12/05 12:32:14;;;;;;;;;;;7.50;86.10;;;;;;5030893;28;20327;-70
2022/12/05 12:35:06;;;;;;;25.23;15.68;;;7.50;87.80;;;;;;5030193;28;20020;-73
2022/12/05 12:37:37;;;;;;;20.63;13.75;;;7.60;85.40;;;;;;5027250;28;20108;-70
2022/12/05 12:40:22;;;;;;;28.40;16.58;;;7.60;83.10;;;;;;5043013;28;20554;-71
2022/12/05 12:43:10;;;;;;;25.23;14.65;;;7.70;85.70;;;;;;5028262;28;20524;-72
2022/12/05 12:46:07;;;;;;;24.65;15.57;;;7.80;83.40;;;;;;5028690;28;20048;-71
2022/12/05 12:48:48;;;;;;;23.25;14.18;;;7.80;85.80;;;;;;5025255;28;20049;-70
2022/12/05 12:51:14;;;;;;;18.63;12.52;;;7.90;83.30;;;;;;5028175;28;20040;-70
2022/12/05 12:53:57;;;;;;;18.88;11.95;;;8.00;82.80;;;;;;5028143;28;20033;-70
2022/12/05 12:56:50;;;;;;;21.60;11.88;;;7.90;80.90;;;;;;5027173;28;20032;-70
2022/12/05 12:59:43;;;;;;;18.88;11.88;;;7.90;80.40;;;;;;5028288;28;20018;-70
2022/12/05 13:02:36;;;;;;;20.90;12.60;;;7.80;78.90;;;;;;5027933;28;20031;-71
2022/12/05 13:05:28;;;;;;;22.75;11.60;;;7.80;81.00;;;;;;5026115;28;20041;-72
2022/12/05 13:08:03;;;;;;;18.73;11.38;;;7.90;80.60;;;;;;5043870;28;20032;-71
2022/12/05 13:10:36;;;;;;;17.80;11.60;;;7.90;81.60;;;;;;5025223;28;20029;-70
2022/12/05 13:13:05;;;;;;;17.17;10.45;;;7.90;82.00;;;;;;5028789;28;20108;-69